sensor_id;sensor_type;location;lat;lon;timestamp;temperature;humidity
9723;DHT22;4900;49.306;8.500;2022-08-06T00:02:36;22.85;49.29
9723;DHT22;4900;49.306;8.500;2022-08-06T00:05:39;22.83;49.58
9723;DHT22;4900;49.306;8.500;2022-08-06T00:08:42;22.75;49.84
9723;DHT22;4900;49.306;8.500;2022-08-06T00:11:45;22.68;49.87
9723;DHT22;4900;49.306;8.500;2022-08-06T00:14:48;22.67;49.99
9723;DHT22;4900;49.306;8.500;2022-08-06T00:17:54;22.69;50.09
9723;DHT22;4900;49.306;8.500;2022-08-06T00:20:57;22.67;50.25
9723;DHT22;4900;49.306;8.500;2022-08-06T00:24:01;22.62;50.34
9723;DHT22;4900;49.306;8.500;2022-08-06T00:27:03;22.58;50.48
9723;DHT22;4900;49.306;8.500;2022-08-06T00:30:08;22.54;50.63
9723;DHT22;4900;49.306;8.500;2022-08-06T00:33:11;22.48;50.83
9723;DHT22;4900;49.306;8.500;2022-08-06T00:36:14;22.40;51.07
9723;DHT22;4900;49.306;8.500;2022-08-06T00:39:17;22.37;51.27
9723;DHT22;4900;49.306;8.500;2022-08-06T00:42:21;22.36;51.35
9723;DHT22;4900;49.306;8.500;2022-08-06T00:45:24;22.27;51.78
9723;DHT22;4900;49.306;8.500;2022-08-06T00:48:28;22.24;52.03
9723;DHT22;4900;49.306;8.500;2022-08-06T00:51:31;22.17;52.23
9723;DHT22;4900;49.306;8.500;2022-08-06T00:54:34;22.12;52.38
9723;DHT22;4900;49.306;8.500;2022-08-06T00:57:38;22.09;52.49
9723;DHT22;4900;49.306;8.500;2022-08-06T01:00:42;21.99;52.76
9723;DHT22;4900;49.306;8.500;2022-08-06T01:03:45;21.95;52.95
9723;DHT22;4900;49.306;8.500;2022-08-06T01:06:48;21.89;53.28
9723;DHT22;4900;49.306;8.500;2022-08-06T01:09:51;21.85;53.31
9723;DHT22;4900;49.306;8.500;2022-08-06T01:12:54;21.76;53.54
9723;DHT22;4900;49.306;8.500;2022-08-06T01:16:12;21.72;53.61
9723;DHT22;4900;49.306;8.500;2022-08-06T01:26:36;21.44;54.61
9723;DHT22;4900;49.306;8.500;2022-08-06T01:29:46;21.43;54.85
9723;DHT22;4900;49.306;8.500;2022-08-06T01:33:02;21.41;54.96
9723;DHT22;4900;49.306;8.500;2022-08-06T01:36:09;21.40;55.29
9723;DHT22;4900;49.306;8.500;2022-08-06T01:39:17;21.34;55.81
9723;DHT22;4900;49.306;8.500;2022-08-06T01:42:22;21.29;55.98
9723;DHT22;4900;49.306;8.500;2022-08-06T01:45:28;21.21;56.23
9723;DHT22;4900;49.306;8.500;2022-08-06T01:48:34;21.10;56.67
9723;DHT22;4900;49.306;8.500;2022-08-06T01:51:40;21.11;56.60
9723;DHT22;4900;49.306;8.500;2022-08-06T01:54:47;21.09;56.72
9723;DHT22;4900;49.306;8.500;2022-08-06T01:57:55;21.03;57.13
9723;DHT22;4900;49.306;8.500;2022-08-06T02:01:04;21.02;57.21
9723;DHT22;4900;49.306;8.500;2022-08-06T02:04:09;20.99;57.37
9723;DHT22;4900;49.306;8.500;2022-08-06T02:07:16;20.93;57.44
9723;DHT22;4900;49.306;8.500;2022-08-06T02:10:22;20.91;57.63
9723;DHT22;4900;49.306;8.500;2022-08-06T02:13:27;20.83;57.86
9723;DHT22;4900;49.306;8.500;2022-08-06T02:16:35;20.81;57.93
9723;DHT22;4900;49.306;8.500;2022-08-06T02:19:43;20.76;58.12
9723;DHT22;4900;49.306;8.500;2022-08-06T02:22:47;20.71;58.51
9723;DHT22;4900;49.306;8.500;2022-08-06T02:25:54;20.67;58.96
9723;DHT22;4900;49.306;8.500;2022-08-06T02:28:59;20.61;59.11
9723;DHT22;4900;49.306;8.500;2022-08-06T02:32:03;20.58;59.14
9723;DHT22;4900;49.306;8.500;2022-08-06T02:35:06;20.52;59.13
9723;DHT22;4900;49.306;8.500;2022-08-06T02:38:22;20.49;59.14
9723;DHT22;4900;49.306;8.500;2022-08-06T02:41:55;20.43;59.21
9723;DHT22;4900;49.306;8.500;2022-08-06T02:45:07;20.34;59.42
9723;DHT22;4900;49.306;8.500;2022-08-06T02:48:26;20.30;59.48
9723;DHT22;4900;49.306;8.500;2022-08-06T02:51:38;20.21;59.90
9723;DHT22;4900;49.306;8.500;2022-08-06T02:55:05;20.20;59.95
9723;DHT22;4900;49.306;8.500;2022-08-06T02:58:32;20.16;60.03
9723;DHT22;4900;49.306;8.500;2022-08-06T03:01:43;20.08;60.27
9723;DHT22;4900;49.306;8.500;2022-08-06T03:04:48;20.06;60.44
9723;DHT22;4900;49.306;8.500;2022-08-06T03:07:52;19.99;60.47
9723;DHT22;4900;49.306;8.500;2022-08-06T03:10:58;20.02;60.32
9723;DHT22;4900;49.306;8.500;2022-08-06T03:14:02;20.03;60.34
9723;DHT22;4900;49.306;8.500;2022-08-06T03:17:07;19.98;60.34
9723;DHT22;4900;49.306;8.500;2022-08-06T03:20:18;19.92;60.33
9723;DHT22;4900;49.306;8.500;2022-08-06T03:23:21;19.92;60.42
9723;DHT22;4900;49.306;8.500;2022-08-06T03:26:27;19.86;60.57
9723;DHT22;4900;49.306;8.500;2022-08-06T03:29:32;19.81;60.60
9723;DHT22;4900;49.306;8.500;2022-08-06T03:32:37;19.79;60.67
9723;DHT22;4900;49.306;8.500;2022-08-06T03:35:41;19.69;60.44
9723;DHT22;4900;49.306;8.500;2022-08-06T03:39:11;19.65;60.24
9723;DHT22;4900;49.306;8.500;2022-08-06T03:42:14;19.62;60.15
9723;DHT22;4900;49.306;8.500;2022-08-06T03:45:17;19.61;60.29
9723;DHT22;4900;49.306;8.500;2022-08-06T03:48:24;19.59;60.23
9723;DHT22;4900;49.306;8.500;2022-08-06T03:51:28;19.57;60.47
9723;DHT22;4900;49.306;8.500;2022-08-06T03:54:35;19.53;60.69
9723;DHT22;4900;49.306;8.500;2022-08-06T03:57:41;19.48;60.70
9723;DHT22;4900;49.306;8.500;2022-08-06T04:00:54;19.41;60.59
9723;DHT22;4900;49.306;8.500;2022-08-06T04:03:58;19.37;60.37
9723;DHT22;4900;49.306;8.500;2022-08-06T04:07:03;19.27;60.14
9723;DHT22;4900;49.306;8.500;2022-08-06T04:10:07;19.22;60.06
9723;DHT22;4900;49.306;8.500;2022-08-06T04:13:18;19.20;59.88
9723;DHT22;4900;49.306;8.500;2022-08-06T04:16:21;19.19;59.82
9723;DHT22;4900;49.306;8.500;2022-08-06T04:19:25;19.14;59.79
9723;DHT22;4900;49.306;8.500;2022-08-06T04:22:29;19.16;59.81
9723;DHT22;4900;49.306;8.500;2022-08-06T04:25:44;19.20;59.76
9723;DHT22;4900;49.306;8.500;2022-08-06T04:28:51;19.19;59.86
9723;DHT22;4900;49.306;8.500;2022-08-06T04:31:55;19.13;59.93
9723;DHT22;4900;49.306;8.500;2022-08-06T04:35:02;19.16;59.80
9723;DHT22;4900;49.306;8.500;2022-08-06T04:38:07;19.22;59.68
9723;DHT22;4900;49.306;8.500;2022-08-06T04:41:12;19.23;59.48
9723;DHT22;4900;49.306;8.500;2022-08-06T04:44:15;19.24;59.22
9723;DHT22;4900;49.306;8.500;2022-08-06T04:47:19;19.27;58.91
9723;DHT22;4900;49.306;8.500;2022-08-06T04:50:22;19.23;58.69
9723;DHT22;4900;49.306;8.500;2022-08-06T04:53:25;19.24;58.62
9723;DHT22;4900;49.306;8.500;2022-08-06T04:56:29;19.24;58.62
9723;DHT22;4900;49.306;8.500;2022-08-06T04:59:32;19.30;58.60
9723;DHT22;4900;49.306;8.500;2022-08-06T05:02:35;19.31;58.48
9723;DHT22;4900;49.306;8.500;2022-08-06T05:05:42;19.33;58.34
9723;DHT22;4900;49.306;8.500;2022-08-06T05:08:49;19.31;58.44
9723;DHT22;4900;49.306;8.500;2022-08-06T05:12:06;19.20;58.62
9723;DHT22;4900;49.306;8.500;2022-08-06T05:15:28;19.24;58.76
9723;DHT22;4900;49.306;8.500;2022-08-06T05:18:46;19.30;58.89
9723;DHT22;4900;49.306;8.500;2022-08-06T05:21:52;19.33;58.83
9723;DHT22;4900;49.306;8.500;2022-08-06T05:24:55;19.30;58.80
9723;DHT22;4900;49.306;8.500;2022-08-06T05:27:59;19.36;58.66
9723;DHT22;4900;49.306;8.500;2022-08-06T05:31:02;19.36;58.74
9723;DHT22;4900;49.306;8.500;2022-08-06T05:34:09;19.27;58.76
9723;DHT22;4900;49.306;8.500;2022-08-06T05:37:12;19.37;58.66
9723;DHT22;4900;49.306;8.500;2022-08-06T05:40:15;19.41;58.40
9723;DHT22;4900;49.306;8.500;2022-08-06T05:43:19;19.46;58.24
9723;DHT22;4900;49.306;8.500;2022-08-06T05:46:23;19.50;57.97
9723;DHT22;4900;49.306;8.500;2022-08-06T05:49:45;19.55;57.72
9723;DHT22;4900;49.306;8.500;2022-08-06T05:53:09;19.59;57.67
9723;DHT22;4900;49.306;8.500;2022-08-06T05:56:18;19.61;57.61
9723;DHT22;4900;49.306;8.500;2022-08-06T05:59:27;19.68;57.36
9723;DHT22;4900;49.306;8.500;2022-08-06T06:02:31;19.76;57.48
9723;DHT22;4900;49.306;8.500;2022-08-06T06:05:36;19.89;57.11
9723;DHT22;4900;49.306;8.500;2022-08-06T06:08:39;20.05;56.74
9723;DHT22;4900;49.306;8.500;2022-08-06T06:11:44;20.27;56.55
9723;DHT22;4900;49.306;8.500;2022-08-06T06:14:49;20.49;55.63
9723;DHT22;4900;49.306;8.500;2022-08-06T06:18:28;21.03;54.39
9723;DHT22;4900;49.306;8.500;2022-08-06T06:21:57;21.65;52.71
9723;DHT22;4900;49.306;8.500;2022-08-06T06:25:08;22.23;51.23
9723;DHT22;4900;49.306;8.500;2022-08-06T06:28:28;22.78;49.49
9723;DHT22;4900;49.306;8.500;2022-08-06T06:31:42;23.30;48.42
9723;DHT22;4900;49.306;8.500;2022-08-06T06:34:54;23.72;47.30
9723;DHT22;4900;49.306;8.500;2022-08-06T06:38:34;24.36;45.87
9723;DHT22;4900;49.306;8.500;2022-08-06T06:41:47;24.80;44.98
9723;DHT22;4900;49.306;8.500;2022-08-06T06:45:14;25.26;43.97
9723;DHT22;4900;49.306;8.500;2022-08-06T06:48:23;25.72;43.03
9723;DHT22;4900;49.306;8.500;2022-08-06T06:51:44;26.03;42.07
9723;DHT22;4900;49.306;8.500;2022-08-06T06:54:52;26.34;41.55
9723;DHT22;4900;49.306;8.500;2022-08-06T06:58:07;26.67;40.83
9723;DHT22;4900;49.306;8.500;2022-08-06T07:01:14;26.65;40.55
9723;DHT22;4900;49.306;8.500;2022-08-06T07:04:18;27.12;39.97
9723;DHT22;4900;49.306;8.500;2022-08-06T07:07:22;27.34;39.58
9723;DHT22;4900;49.306;8.500;2022-08-06T07:10:26;27.71;39.02
9723;DHT22;4900;49.306;8.500;2022-08-06T07:13:31;28.17;37.95
9723;DHT22;4900;49.306;8.500;2022-08-06T07:16:35;28.26;37.91
9723;DHT22;4900;49.306;8.500;2022-08-06T07:19:39;28.64;37.22
9723;DHT22;4900;49.306;8.500;2022-08-06T07:22:44;28.96;36.62
9723;DHT22;4900;49.306;8.500;2022-08-06T07:25:48;29.03;36.03
9723;DHT22;4900;49.306;8.500;2022-08-06T07:28:53;29.34;35.62
9723;DHT22;4900;49.306;8.500;2022-08-06T07:31:57;29.58;35.00
9723;DHT22;4900;49.306;8.500;2022-08-06T07:35:05;29.89;34.88
9723;DHT22;4900;49.306;8.500;2022-08-06T07:38:10;30.20;33.74
9723;DHT22;4900;49.306;8.500;2022-08-06T07:41:16;30.50;33.43
9723;DHT22;4900;49.306;8.500;2022-08-06T07:44:22;30.75;32.22
9723;DHT22;4900;49.306;8.500;2022-08-06T07:47:36;30.78;30.91
9723;DHT22;4900;49.306;8.500;2022-08-06T07:50:43;30.83;30.43
9723;DHT22;4900;49.306;8.500;2022-08-06T07:53:48;30.99;30.21
9723;DHT22;4900;49.306;8.500;2022-08-06T07:56:53;31.07;29.19
9723;DHT22;4900;49.306;8.500;2022-08-06T07:59:56;31.02;29.47
9723;DHT22;4900;49.306;8.500;2022-08-06T08:02:59;31.22;28.77
9723;DHT22;4900;49.306;8.500;2022-08-06T08:06:21;31.71;28.85
9723;DHT22;4900;49.306;8.500;2022-08-06T08:09:26;32.05;27.89
9723;DHT22;4900;49.306;8.500;2022-08-06T08:12:30;32.16;27.74
9723;DHT22;4900;49.306;8.500;2022-08-06T08:15:34;32.43;27.49
9723;DHT22;4900;49.306;8.500;2022-08-06T08:18:38;32.72;27.21
9723;DHT22;4900;49.306;8.500;2022-08-06T08:21:41;32.63;26.68
9723;DHT22;4900;49.306;8.500;2022-08-06T08:24:46;32.68;26.41
9723;DHT22;4900;49.306;8.500;2022-08-06T08:27:49;32.92;25.98
9723;DHT22;4900;49.306;8.500;2022-08-06T08:30:55;33.11;25.86
9723;DHT22;4900;49.306;8.500;2022-08-06T08:34:01;33.47;25.84
9723;DHT22;4900;49.306;8.500;2022-08-06T08:37:05;33.67;25.70
9723;DHT22;4900;49.306;8.500;2022-08-06T08:40:09;34.23;25.59
9723;DHT22;4900;49.306;8.500;2022-08-06T08:43:18;34.91;24.91
9723;DHT22;4900;49.306;8.500;2022-08-06T08:46:24;34.71;24.68
9723;DHT22;4900;49.306;8.500;2022-08-06T08:49:41;34.94;24.18
9723;DHT22;4900;49.306;8.500;2022-08-06T08:52:46;35.05;23.55
9723;DHT22;4900;49.306;8.500;2022-08-06T08:55:52;35.56;23.54
9723;DHT22;4900;49.306;8.500;2022-08-06T08:58:55;36.17;23.35
9723;DHT22;4900;49.306;8.500;2022-08-06T09:01:58;36.08;22.13
9723;DHT22;4900;49.306;8.500;2022-08-06T09:05:01;36.22;22.37
9723;DHT22;4900;49.306;8.500;2022-08-06T09:08:05;36.25;22.53
9723;DHT22;4900;49.306;8.500;2022-08-06T09:11:08;36.38;21.88
9723;DHT22;4900;49.306;8.500;2022-08-06T09:14:11;36.22;22.03
9723;DHT22;4900;49.306;8.500;2022-08-06T09:17:14;36.56;21.74
9723;DHT22;4900;49.306;8.500;2022-08-06T09:20:17;36.49;21.31
9723;DHT22;4900;49.306;8.500;2022-08-06T09:23:21;36.75;21.23
9723;DHT22;4900;49.306;8.500;2022-08-06T09:26:25;36.91;20.61
9723;DHT22;4900;49.306;8.500;2022-08-06T09:29:28;37.34;20.44
9723;DHT22;4900;49.306;8.500;2022-08-06T09:32:45;37.01;20.17
9723;DHT22;4900;49.306;8.500;2022-08-06T09:36:00;35.52;21.46
9723;DHT22;4900;49.306;8.500;2022-08-06T09:39:03;35.47;21.02
9723;DHT22;4900;49.306;8.500;2022-08-06T09:42:07;35.42;21.72
9723;DHT22;4900;49.306;8.500;2022-08-06T09:45:12;35.69;21.77
9723;DHT22;4900;49.306;8.500;2022-08-06T09:48:16;35.53;21.54
9723;DHT22;4900;49.306;8.500;2022-08-06T09:51:22;35.01;21.53
9723;DHT22;4900;49.306;8.500;2022-08-06T09:54:36;34.86;20.88
9723;DHT22;4900;49.306;8.500;2022-08-06T09:57:44;35.16;23.06
9723;DHT22;4900;49.306;8.500;2022-08-06T10:00:47;35.15;22.81
9723;DHT22;4900;49.306;8.500;2022-08-06T10:03:52;34.98;22.72
9723;DHT22;4900;49.306;8.500;2022-08-06T10:06:58;35.07;22.34
9723;DHT22;4900;49.306;8.500;2022-08-06T10:10:01;35.18;24.21
9723;DHT22;4900;49.306;8.500;2022-08-06T10:13:17;35.41;24.00
9723;DHT22;4900;49.306;8.500;2022-08-06T10:16:21;35.07;23.97
9723;DHT22;4900;49.306;8.500;2022-08-06T10:19:31;35.28;24.06
9723;DHT22;4900;49.306;8.500;2022-08-06T10:22:34;35.60;22.74
9723;DHT22;4900;49.306;8.500;2022-08-06T10:25:37;35.26;23.16
9723;DHT22;4900;49.306;8.500;2022-08-06T10:28:42;35.11;22.96
9723;DHT22;4900;49.306;8.500;2022-08-06T10:31:47;35.29;23.39
9723;DHT22;4900;49.306;8.500;2022-08-06T10:34:51;35.29;23.93
9723;DHT22;4900;49.306;8.500;2022-08-06T10:38:02;35.36;22.72
9723;DHT22;4900;49.306;8.500;2022-08-06T10:41:10;35.81;22.19
9723;DHT22;4900;49.306;8.500;2022-08-06T10:44:13;36.05;21.83
9723;DHT22;4900;49.306;8.500;2022-08-06T10:47:17;35.81;21.95
9723;DHT22;4900;49.306;8.500;2022-08-06T10:50:21;35.39;21.97
9723;DHT22;4900;49.306;8.500;2022-08-06T10:53:24;35.95;22.20
9723;DHT22;4900;49.306;8.500;2022-08-06T10:56:28;35.74;22.27
9723;DHT22;4900;49.306;8.500;2022-08-06T10:59:31;35.87;22.61
9723;DHT22;4900;49.306;8.500;2022-08-06T11:02:57;35.72;21.91
9723;DHT22;4900;49.306;8.500;2022-08-06T11:12:52;35.41;22.62
9723;DHT22;4900;49.306;8.500;2022-08-06T11:15:55;35.57;23.14
9723;DHT22;4900;49.306;8.500;2022-08-06T11:19:03;36.15;21.82
9723;DHT22;4900;49.306;8.500;2022-08-06T11:22:06;36.11;21.70
9723;DHT22;4900;49.306;8.500;2022-08-06T11:25:10;35.91;21.07
9723;DHT22;4900;49.306;8.500;2022-08-06T11:31:46;35.90;22.41
9723;DHT22;4900;49.306;8.500;2022-08-06T11:34:50;36.04;22.80
9723;DHT22;4900;49.306;8.500;2022-08-06T11:37:53;36.15;21.55
9723;DHT22;4900;49.306;8.500;2022-08-06T11:41:16;35.83;21.97
9723;DHT22;4900;49.306;8.500;2022-08-06T11:44:24;35.78;23.49
9723;DHT22;4900;49.306;8.500;2022-08-06T11:47:27;36.33;21.44
9723;DHT22;4900;49.306;8.500;2022-08-06T11:50:30;36.11;21.81
9723;DHT22;4900;49.306;8.500;2022-08-06T11:53:37;36.02;22.29
9723;DHT22;4900;49.306;8.500;2022-08-06T12:00:05;35.91;21.11
9723;DHT22;4900;49.306;8.500;2022-08-06T12:03:11;35.87;21.11
9723;DHT22;4900;49.306;8.500;2022-08-06T12:06:22;35.98;21.24
9723;DHT22;4900;49.306;8.500;2022-08-06T12:09:35;36.40;22.49
9723;DHT22;4900;49.306;8.500;2022-08-06T12:12:43;36.60;23.00
9723;DHT22;4900;49.306;8.500;2022-08-06T12:15:48;37.04;21.33
9723;DHT22;4900;49.306;8.500;2022-08-06T12:18:52;37.51;20.28
9723;DHT22;4900;49.306;8.500;2022-08-06T12:21:55;37.03;20.86
9723;DHT22;4900;49.306;8.500;2022-08-06T12:25:02;37.34;20.15
9723;DHT22;4900;49.306;8.500;2022-08-06T12:28:07;37.66;19.81
9723;DHT22;4900;49.306;8.500;2022-08-06T12:31:10;37.41;19.46
9723;DHT22;4900;49.306;8.500;2022-08-06T12:34:26;37.62;19.89
9723;DHT22;4900;49.306;8.500;2022-08-06T12:37:37;37.43;20.46
9723;DHT22;4900;49.306;8.500;2022-08-06T12:41:01;37.31;19.88
9723;DHT22;4900;49.306;8.500;2022-08-06T12:44:04;37.52;19.83
9723;DHT22;4900;49.306;8.500;2022-08-06T12:47:14;37.48;20.07
9723;DHT22;4900;49.306;8.500;2022-08-06T12:50:18;37.90;19.56
9723;DHT22;4900;49.306;8.500;2022-08-06T12:53:21;38.00;18.77
9723;DHT22;4900;49.306;8.500;2022-08-06T12:56:26;38.03;18.92
9723;DHT22;4900;49.306;8.500;2022-08-06T12:59:29;38.17;19.47
9723;DHT22;4900;49.306;8.500;2022-08-06T13:02:33;37.51;18.70
9723;DHT22;4900;49.306;8.500;2022-08-06T13:05:37;37.62;18.82
9723;DHT22;4900;49.306;8.500;2022-08-06T13:08:40;37.54;18.95
9723;DHT22;4900;49.306;8.500;2022-08-06T13:11:44;37.62;19.49
9723;DHT22;4900;49.306;8.500;2022-08-06T13:14:52;37.91;19.25
9723;DHT22;4900;49.306;8.500;2022-08-06T13:21:20;38.08;18.77
9723;DHT22;4900;49.306;8.500;2022-08-06T13:24:27;38.39;18.64
9723;DHT22;4900;49.306;8.500;2022-08-06T13:27:32;38.44;18.46
9723;DHT22;4900;49.306;8.500;2022-08-06T13:30:34;38.36;18.33
9723;DHT22;4900;49.306;8.500;2022-08-06T13:33:38;38.68;18.20
9723;DHT22;4900;49.306;8.500;2022-08-06T13:36:44;38.80;17.73
9723;DHT22;4900;49.306;8.500;2022-08-06T13:39:51;38.32;17.56
9723;DHT22;4900;49.306;8.500;2022-08-06T13:42:55;39.02;17.93
9723;DHT22;4900;49.306;8.500;2022-08-06T13:46:10;38.55;18.18
9723;DHT22;4900;49.306;8.500;2022-08-06T13:49:13;38.96;17.90
9723;DHT22;4900;49.306;8.500;2022-08-06T13:52:16;38.90;17.68
9723;DHT22;4900;49.306;8.500;2022-08-06T13:55:24;38.63;17.41
9723;DHT22;4900;49.306;8.500;2022-08-06T13:58:29;38.21;17.47
9723;DHT22;4900;49.306;8.500;2022-08-06T14:01:32;38.23;17.68
9723;DHT22;4900;49.306;8.500;2022-08-06T14:04:35;38.14;18.09
9723;DHT22;4900;49.306;8.500;2022-08-06T14:07:38;38.16;18.22
9723;DHT22;4900;49.306;8.500;2022-08-06T14:10:41;38.06;18.17
9723;DHT22;4900;49.306;8.500;2022-08-06T14:13:44;38.24;17.95
9723;DHT22;4900;49.306;8.500;2022-08-06T14:16:47;38.21;17.76
9723;DHT22;4900;49.306;8.500;2022-08-06T14:19:50;38.07;18.32
9723;DHT22;4900;49.306;8.500;2022-08-06T14:22:53;38.18;18.03
9723;DHT22;4900;49.306;8.500;2022-08-06T14:25:56;38.24;18.29
9723;DHT22;4900;49.306;8.500;2022-08-06T14:28:59;38.63;17.62
9723;DHT22;4900;49.306;8.500;2022-08-06T14:32:06;38.55;17.54
9723;DHT22;4900;49.306;8.500;2022-08-06T14:35:10;38.55;17.23
9723;DHT22;4900;49.306;8.500;2022-08-06T14:38:14;38.47;17.89
9723;DHT22;4900;49.306;8.500;2022-08-06T14:41:17;38.70;17.32
9723;DHT22;4900;49.306;8.500;2022-08-06T14:44:39;38.39;18.12
9723;DHT22;4900;49.306;8.500;2022-08-06T14:47:57;38.87;18.15
9723;DHT22;4900;49.306;8.500;2022-08-06T14:51:00;38.96;17.62
9723;DHT22;4900;49.306;8.500;2022-08-06T14:54:03;39.14;17.60
9723;DHT22;4900;49.306;8.500;2022-08-06T14:57:09;39.25;17.06
9723;DHT22;4900;49.306;8.500;2022-08-06T15:00:13;39.02;17.48
9723;DHT22;4900;49.306;8.500;2022-08-06T15:03:18;39.07;17.32
9723;DHT22;4900;49.306;8.500;2022-08-06T15:06:21;39.27;17.42
9723;DHT22;4900;49.306;8.500;2022-08-06T15:09:25;39.14;17.83
9723;DHT22;4900;49.306;8.500;2022-08-06T15:12:28;38.78;17.87
9723;DHT22;4900;49.306;8.500;2022-08-06T15:15:32;39.03;17.82
9723;DHT22;4900;49.306;8.500;2022-08-06T15:18:35;38.61;17.36
9723;DHT22;4900;49.306;8.500;2022-08-06T15:21:39;38.75;17.64
9723;DHT22;4900;49.306;8.500;2022-08-06T15:24:42;38.76;17.76
9723;DHT22;4900;49.306;8.500;2022-08-06T15:27:45;38.80;17.60
9723;DHT22;4900;49.306;8.500;2022-08-06T15:30:48;38.75;17.05
9723;DHT22;4900;49.306;8.500;2022-08-06T15:33:51;38.32;17.19
9723;DHT22;4900;49.306;8.500;2022-08-06T15:36:54;38.69;17.59
9723;DHT22;4900;49.306;8.500;2022-08-06T15:40:00;38.27;17.67
9723;DHT22;4900;49.306;8.500;2022-08-06T15:43:03;38.48;17.87
9723;DHT22;4900;49.306;8.500;2022-08-06T15:46:06;38.32;17.67
9723;DHT22;4900;49.306;8.500;2022-08-06T15:49:09;38.27;17.21
9723;DHT22;4900;49.306;8.500;2022-08-06T15:52:13;38.07;17.75
9723;DHT22;4900;49.306;8.500;2022-08-06T15:55:16;37.70;17.63
9723;DHT22;4900;49.306;8.500;2022-08-06T15:58:19;37.43;17.99
9723;DHT22;4900;49.306;8.500;2022-08-06T16:01:22;37.35;18.35
9723;DHT22;4900;49.306;8.500;2022-08-06T16:04:25;37.46;17.91
9723;DHT22;4900;49.306;8.500;2022-08-06T16:07:28;37.65;18.17
9723;DHT22;4900;49.306;8.500;2022-08-06T16:10:32;37.38;17.79
9723;DHT22;4900;49.306;8.500;2022-08-06T16:13:36;37.20;17.88
9723;DHT22;4900;49.306;8.500;2022-08-06T16:16:39;36.72;18.33
9723;DHT22;4900;49.306;8.500;2022-08-06T16:19:42;36.79;18.67
9723;DHT22;4900;49.306;8.500;2022-08-06T16:22:45;36.52;19.15
9723;DHT22;4900;49.306;8.500;2022-08-06T16:25:48;36.46;18.44
9723;DHT22;4900;49.306;8.500;2022-08-06T16:28:51;35.78;18.71
9723;DHT22;4900;49.306;8.500;2022-08-06T16:31:55;35.16;19.69
9723;DHT22;4900;49.306;8.500;2022-08-06T16:34:58;34.80;20.60
9723;DHT22;4900;49.306;8.500;2022-08-06T16:38:02;34.92;20.80
9723;DHT22;4900;49.306;8.500;2022-08-06T16:41:05;34.16;21.39
9723;DHT22;4900;49.306;8.500;2022-08-06T16:44:07;33.91;21.16
9723;DHT22;4900;49.306;8.500;2022-08-06T16:47:10;33.39;21.99
9723;DHT22;4900;49.306;8.500;2022-08-06T16:50:14;32.88;22.65
9723;DHT22;4900;49.306;8.500;2022-08-06T16:53:18;32.27;23.19
9723;DHT22;4900;49.306;8.500;2022-08-06T16:56:21;31.55;22.96
9723;DHT22;4900;49.306;8.500;2022-08-06T16:59:24;31.00;23.29
9723;DHT22;4900;49.306;8.500;2022-08-06T17:02:26;30.65;23.66
9723;DHT22;4900;49.306;8.500;2022-08-06T17:05:38;30.33;24.34
9723;DHT22;4900;49.306;8.500;2022-08-06T17:08:41;29.93;25.25
9723;DHT22;4900;49.306;8.500;2022-08-06T17:11:45;29.89;25.66
9723;DHT22;4900;49.306;8.500;2022-08-06T17:14:48;29.55;25.32
9723;DHT22;4900;49.306;8.500;2022-08-06T17:17:51;29.31;25.35
9723;DHT22;4900;49.306;8.500;2022-08-06T17:20:54;29.25;25.77
9723;DHT22;4900;49.306;8.500;2022-08-06T17:23:58;29.20;25.65
9723;DHT22;4900;49.306;8.500;2022-08-06T17:27:05;29.10;25.83
9723;DHT22;4900;49.306;8.500;2022-08-06T17:30:12;28.93;25.83
9723;DHT22;4900;49.306;8.500;2022-08-06T17:33:15;28.85;25.78
9723;DHT22;4900;49.306;8.500;2022-08-06T17:36:18;28.72;26.04
9723;DHT22;4900;49.306;8.500;2022-08-06T17:39:21;28.65;26.11
9723;DHT22;4900;49.306;8.500;2022-08-06T17:42:24;28.48;26.24
9723;DHT22;4900;49.306;8.500;2022-08-06T17:45:28;28.44;26.06
9723;DHT22;4900;49.306;8.500;2022-08-06T17:48:31;28.41;26.18
9723;DHT22;4900;49.306;8.500;2022-08-06T17:51:35;28.33;26.52
9723;DHT22;4900;49.306;8.500;2022-08-06T17:54:38;28.34;26.70
9723;DHT22;4900;49.306;8.500;2022-08-06T17:57:41;28.20;27.21
9723;DHT22;4900;49.306;8.500;2022-08-06T18:00:44;28.19;27.38
9723;DHT22;4900;49.306;8.500;2022-08-06T18:03:47;28.06;27.53
9723;DHT22;4900;49.306;8.500;2022-08-06T18:06:51;28.06;27.54
9723;DHT22;4900;49.306;8.500;2022-08-06T18:09:54;28.06;27.86
9723;DHT22;4900;49.306;8.500;2022-08-06T18:13:16;28.05;28.09
9723;DHT22;4900;49.306;8.500;2022-08-06T18:16:21;28.08;28.04
9723;DHT22;4900;49.306;8.500;2022-08-06T18:19:24;27.98;27.96
9723;DHT22;4900;49.306;8.500;2022-08-06T18:22:27;27.92;28.17
9723;DHT22;4900;49.306;8.500;2022-08-06T18:25:30;27.92;27.91
9723;DHT22;4900;49.306;8.500;2022-08-06T18:28:35;27.90;27.43
9723;DHT22;4900;49.306;8.500;2022-08-06T18:31:38;27.89;27.41
9723;DHT22;4900;49.306;8.500;2022-08-06T18:34:41;27.78;27.68
9723;DHT22;4900;49.306;8.500;2022-08-06T18:37:45;27.62;28.03
9723;DHT22;4900;49.306;8.500;2022-08-06T18:40:48;27.44;28.51
9723;DHT22;4900;49.306;8.500;2022-08-06T18:43:52;27.34;28.90
9723;DHT22;4900;49.306;8.500;2022-08-06T18:46:55;27.13;29.49
9723;DHT22;4900;49.306;8.500;2022-08-06T18:49:58;26.76;29.78
9723;DHT22;4900;49.306;8.500;2022-08-06T18:53:02;26.71;30.41
9723;DHT22;4900;49.306;8.500;2022-08-06T18:56:05;26.45;30.67
9723;DHT22;4900;49.306;8.500;2022-08-06T18:59:08;26.24;30.95
9723;DHT22;4900;49.306;8.500;2022-08-06T19:02:12;26.09;31.48
9723;DHT22;4900;49.306;8.500;2022-08-06T19:05:16;25.85;32.01
9723;DHT22;4900;49.306;8.500;2022-08-06T19:08:19;25.57;32.31
9723;DHT22;4900;49.306;8.500;2022-08-06T19:11:22;25.50;32.48
9723;DHT22;4900;49.306;8.500;2022-08-06T19:14:25;25.34;32.48
9723;DHT22;4900;49.306;8.500;2022-08-06T19:17:28;25.24;32.65
9723;DHT22;4900;49.306;8.500;2022-08-06T19:20:31;25.09;32.95
9723;DHT22;4900;49.306;8.500;2022-08-06T19:23:34;24.98;32.90
9723;DHT22;4900;49.306;8.500;2022-08-06T19:26:38;24.86;33.30
9723;DHT22;4900;49.306;8.500;2022-08-06T19:29:41;24.80;33.54
9723;DHT22;4900;49.306;8.500;2022-08-06T19:32:44;24.76;33.62
9723;DHT22;4900;49.306;8.500;2022-08-06T19:35:47;24.64;33.80
9723;DHT22;4900;49.306;8.500;2022-08-06T19:38:50;24.51;34.02
9723;DHT22;4900;49.306;8.500;2022-08-06T19:41:54;24.40;34.14
9723;DHT22;4900;49.306;8.500;2022-08-06T19:44:57;24.32;34.21
9723;DHT22;4900;49.306;8.500;2022-08-06T19:48:00;24.18;34.10
9723;DHT22;4900;49.306;8.500;2022-08-06T19:51:03;24.16;34.23
9723;DHT22;4900;49.306;8.500;2022-08-06T19:54:06;24.10;34.50
9723;DHT22;4900;49.306;8.500;2022-08-06T19:57:10;24.02;34.61
9723;DHT22;4900;49.306;8.500;2022-08-06T20:00:14;23.95;34.75
9723;DHT22;4900;49.306;8.500;2022-08-06T20:03:17;23.88;34.78
9723;DHT22;4900;49.306;8.500;2022-08-06T20:06:20;23.77;34.90
9723;DHT22;4900;49.306;8.500;2022-08-06T20:09:23;23.72;35.07
9723;DHT22;4900;49.306;8.500;2022-08-06T20:12:33;23.57;35.18
9723;DHT22;4900;49.306;8.500;2022-08-06T20:15:36;23.55;35.35
9723;DHT22;4900;49.306;8.500;2022-08-06T20:18:39;23.44;35.53
9723;DHT22;4900;49.306;8.500;2022-08-06T20:21:43;23.38;35.65
9723;DHT22;4900;49.306;8.500;2022-08-06T20:24:47;23.34;35.78
9723;DHT22;4900;49.306;8.500;2022-08-06T20:27:50;23.34;35.79
9723;DHT22;4900;49.306;8.500;2022-08-06T20:30:53;23.27;35.92
9723;DHT22;4900;49.306;8.500;2022-08-06T20:33:57;23.19;36.06
9723;DHT22;4900;49.306;8.500;2022-08-06T20:37:01;23.15;36.27
9723;DHT22;4900;49.306;8.500;2022-08-06T20:40:04;23.07;36.33